createdAt,value
2017-11-19T00:00:40.541Z,1001.05
2017-11-19T00:01:40.572Z,1001.01
2017-11-19T00:02:40.596Z,1000.95
2017-11-19T00:03:40.625Z,1000.94
2017-11-19T00:04:40.652Z,1000.90
2017-11-19T00:05:40.679Z,1000.83
2017-11-19T00:06:40.758Z,1000.81
2017-11-19T00:07:40.742Z,1000.82
2017-11-19T00:08:40.762Z,1000.82
2017-11-19T00:09:40.790Z,1000.76
2017-11-19T00:10:40.817Z,1000.78
2017-11-19T00:11:40.846Z,1000.77
2017-11-19T00:12:40.874Z,1000.77
2017-11-19T00:13:40.901Z,1000.76
2017-11-19T00:14:40.927Z,1000.80
2017-11-19T00:15:40.956Z,1000.80
2017-11-19T00:16:40.984Z,1000.77
2017-11-19T00:17:41.010Z,1000.76
2017-11-19T00:18:41.044Z,1000.76
2017-11-19T00:19:41.067Z,1000.78
2017-11-19T00:20:41.094Z,1000.77
2017-11-19T00:21:41.222Z,1000.76
2017-11-19T00:22:41.150Z,1000.79
2017-11-19T00:23:41.181Z,1000.78
2017-11-19T00:24:41.215Z,1000.73
2017-11-19T00:25:41.232Z,1000.75
2017-11-19T00:26:41.260Z,1000.77
2017-11-19T00:27:41.288Z,1000.77
2017-11-19T00:28:41.316Z,1000.75
2017-11-19T00:29:41.349Z,1000.74
2017-11-19T00:30:41.371Z,1000.70
2017-11-19T00:31:41.399Z,1000.72
2017-11-19T00:32:41.427Z,1000.70
2017-11-19T00:33:41.453Z,1000.74
2017-11-19T00:34:41.481Z,1000.72
2017-11-19T00:35:41.537Z,1000.75
2017-11-19T00:36:41.539Z,1000.73
2017-11-19T00:37:41.563Z,1000.73
2017-11-19T00:38:41.593Z,1000.67
2017-11-19T00:39:41.624Z,1000.70
2017-11-19T00:40:41.647Z,1000.69
2017-11-19T00:41:41.679Z,1000.70
2017-11-19T00:42:41.702Z,1000.67
2017-11-19T00:43:41.731Z,1000.69
2017-11-19T00:44:41.758Z,1000.68
2017-11-19T00:45:41.788Z,1000.64
2017-11-19T00:46:41.814Z,1000.65
2017-11-19T00:47:41.842Z,1000.60
2017-11-19T00:48:41.871Z,1000.57
2017-11-19T00:49:41.897Z,1000.55
2017-11-19T00:50:41.925Z,1000.55
2017-11-19T00:51:41.954Z,1000.57
2017-11-19T00:52:41.981Z,1000.56
2017-11-19T00:53:42.008Z,1000.59
2017-11-19T00:54:42.036Z,1000.56
2017-11-19T00:55:42.064Z,1000.53
2017-11-19T00:56:42.096Z,1000.47
2017-11-19T00:57:42.119Z,1000.47
2017-11-19T00:58:42.145Z,1000.44
2017-11-19T00:59:42.174Z,1000.45
2017-11-19T01:00:42.201Z,1000.49
2017-11-19T01:01:42.237Z,1000.46
2017-11-19T01:02:42.256Z,1000.46
2017-11-19T01:03:42.285Z,1000.44
2017-11-19T01:04:42.317Z,1000.46
2017-11-19T01:05:42.341Z,1000.42
2017-11-19T01:06:42.365Z,1000.41
2017-11-19T01:07:42.393Z,1000.44
2017-11-19T01:08:42.423Z,1000.38
2017-11-19T01:09:42.450Z,1000.37
2017-11-19T01:10:42.477Z,1000.41
2017-11-19T01:11:42.504Z,1000.39
2017-11-19T01:12:42.533Z,1000.41
2017-11-19T01:13:42.559Z,1000.39
2017-11-19T01:14:42.588Z,1000.33
2017-11-19T01:15:42.618Z,1000.33
2017-11-19T01:16:42.645Z,1000.32
2017-11-19T01:17:42.679Z,1000.29
2017-11-19T01:18:42.698Z,1000.27
2017-11-19T01:19:42.726Z,1000.25
2017-11-19T01:20:42.755Z,1000.24
2017-11-19T01:21:42.781Z,1000.23
2017-11-19T01:22:42.810Z,1000.19
2017-11-19T01:23:42.837Z,1000.21
2017-11-19T01:24:42.865Z,1000.11
2017-11-19T01:25:42.892Z,1000.16
2017-11-19T01:26:42.920Z,1000.12
2017-11-19T01:27:42.948Z,1000.13
2017-11-19T01:28:42.975Z,1000.08
2017-11-19T01:29:43.001Z,1000.10
2017-11-19T01:30:43.034Z,1000.07
2017-11-19T01:31:43.058Z,1000.07
2017-11-19T01:32:43.085Z,1000.05
2017-11-19T01:33:43.113Z,1000.07
2017-11-19T01:34:43.140Z,1000.13
2017-11-19T01:35:43.169Z,1000.07
2017-11-19T01:36:43.195Z,1000.10
2017-11-19T01:37:43.224Z,1000.10
2017-11-19T01:38:43.252Z,1000.08
2017-11-19T01:39:43.280Z,1000.07
2017-11-19T01:40:43.309Z,1000.10
2017-11-19T01:41:43.334Z,1000.04
2017-11-19T01:42:43.363Z,1000.04
2017-11-19T01:43:43.391Z,1000.03
2017-11-19T01:44:43.418Z,1000.03
2017-11-19T01:45:43.445Z,999.97
2017-11-19T01:46:43.473Z,999.99
2017-11-19T01:47:43.501Z,999.98
2017-11-19T01:48:43.529Z,1000.04
2017-11-19T01:49:43.557Z,999.98
2017-11-19T01:50:43.584Z,999.87
2017-11-19T01:51:43.612Z,999.91
2017-11-19T01:52:43.640Z,999.87
2017-11-19T01:53:43.668Z,999.93
2017-11-19T01:54:43.695Z,999.91
2017-11-19T01:55:43.724Z,999.87
2017-11-19T01:56:43.751Z,999.90
2017-11-19T01:57:43.779Z,999.87
2017-11-19T01:58:43.806Z,999.83
2017-11-19T01:59:43.835Z,999.81
2017-11-19T02:00:43.862Z,999.82
2017-11-19T02:01:43.889Z,999.80
2017-11-19T02:02:43.917Z,999.78
2017-11-19T02:03:43.945Z,999.71
2017-11-19T02:04:43.973Z,999.75
2017-11-19T02:05:43.999Z,999.77
2017-11-19T02:06:44.027Z,999.78
2017-11-19T02:07:44.055Z,999.74
2017-11-19T02:08:44.087Z,999.69
2017-11-19T02:09:44.113Z,999.68
2017-11-19T02:10:44.139Z,999.67
2017-11-19T02:11:44.166Z,999.71
2017-11-19T02:12:44.200Z,999.72
2017-11-19T02:13:44.223Z,999.72
2017-11-19T02:14:44.251Z,999.72
2017-11-19T02:15:44.279Z,999.70
2017-11-19T02:16:44.306Z,999.66
2017-11-19T02:17:44.333Z,999.62
2017-11-19T02:18:44.362Z,999.55
2017-11-19T02:19:44.389Z,999.55
2017-11-19T02:20:44.420Z,999.50
2017-11-19T02:21:44.444Z,999.53
2017-11-19T02:22:44.473Z,999.49
2017-11-19T02:23:44.499Z,999.46
2017-11-19T02:24:44.529Z,999.43
2017-11-19T02:25:44.555Z,999.41
2017-11-19T02:26:44.584Z,999.37
2017-11-19T02:27:44.610Z,999.33
2017-11-19T02:28:44.639Z,999.32
2017-11-19T02:29:44.665Z,999.33
2017-11-19T02:30:44.705Z,999.28
2017-11-19T02:31:44.722Z,999.26
2017-11-19T02:32:44.750Z,999.28
2017-11-19T02:33:44.775Z,999.30
2017-11-19T02:34:44.806Z,999.26
2017-11-19T02:35:44.832Z,999.25
2017-11-19T02:36:44.859Z,999.26
2017-11-19T02:37:44.888Z,999.18
2017-11-19T02:38:44.914Z,999.19
2017-11-19T02:39:44.942Z,999.22
2017-11-19T02:40:44.972Z,999.24
2017-11-19T02:41:44.998Z,999.22
2017-11-19T02:42:45.025Z,999.22
2017-11-19T02:43:45.055Z,999.20
2017-11-19T02:44:45.080Z,999.27
2017-11-19T02:45:45.111Z,999.29
2017-11-19T02:46:45.136Z,999.26
2017-11-19T02:47:45.165Z,999.28
2017-11-19T02:48:45.192Z,999.24
2017-11-19T02:49:45.218Z,999.18
2017-11-19T02:50:45.245Z,999.13
2017-11-19T02:51:45.274Z,999.20
2017-11-19T02:52:45.302Z,999.19
2017-11-19T02:53:45.329Z,999.13
2017-11-19T02:54:45.360Z,999.19
2017-11-19T02:55:45.384Z,999.11
2017-11-19T02:56:45.411Z,999.12
2017-11-19T02:57:45.438Z,999.11
2017-11-19T02:58:45.466Z,999.16
2017-11-19T02:59:45.544Z,999.15
2017-11-19T03:00:45.521Z,999.11
2017-11-19T03:01:45.548Z,999.12
2017-11-19T03:02:45.575Z,999.13
2017-11-19T03:03:45.605Z,999.12
2017-11-19T03:04:45.630Z,999.16
2017-11-19T03:05:45.658Z,999.20
2017-11-19T03:06:45.685Z,999.19
2017-11-19T03:07:45.714Z,999.19
2017-11-19T03:08:45.741Z,999.15
2017-11-19T03:09:45.793Z,999.15
2017-11-19T03:10:45.796Z,999.21
2017-11-19T03:11:45.824Z,999.24
2017-11-19T03:12:45.854Z,999.15
2017-11-19T03:13:45.878Z,999.28
2017-11-19T03:14:45.905Z,999.26
2017-11-19T03:15:45.932Z,999.23
2017-11-19T03:16:45.960Z,999.25
2017-11-19T03:17:45.987Z,999.28
2017-11-19T03:18:46.016Z,999.25
2017-11-19T03:19:46.045Z,999.22
2017-11-19T03:20:46.072Z,999.16
2017-11-19T03:21:46.099Z,999.17
2017-11-19T03:22:46.126Z,999.20
2017-11-19T03:23:46.154Z,999.21
2017-11-19T03:24:46.182Z,999.25
2017-11-19T03:25:46.208Z,999.18
2017-11-19T03:26:46.244Z,999.08
2017-11-19T03:27:46.267Z,999.02
2017-11-19T03:28:46.292Z,998.96
2017-11-19T03:29:46.320Z,998.90
2017-11-19T03:30:46.351Z,998.89
2017-11-19T03:31:46.374Z,998.92
2017-11-19T03:32:46.403Z,998.91
2017-11-19T03:33:46.429Z,998.86
2017-11-19T03:34:46.456Z,998.82
2017-11-19T03:35:46.484Z,998.70
2017-11-19T03:36:46.510Z,998.73
2017-11-19T03:37:46.538Z,998.63
2017-11-19T03:38:46.567Z,998.74
2017-11-19T03:39:46.593Z,998.73
2017-11-19T03:40:46.622Z,998.67
2017-11-19T03:41:46.648Z,998.70
2017-11-19T03:42:46.674Z,998.62
2017-11-19T03:43:46.702Z,998.56
2017-11-19T03:44:46.757Z,998.55
2017-11-19T03:45:46.763Z,998.55
2017-11-19T03:46:46.786Z,998.45
2017-11-19T03:47:46.812Z,998.35
2017-11-19T03:48:46.840Z,998.31
2017-11-19T03:49:46.867Z,998.38
2017-11-19T03:50:46.895Z,998.43
2017-11-19T03:51:46.922Z,998.28
2017-11-19T03:52:46.949Z,998.32
2017-11-19T03:53:46.977Z,998.22
2017-11-19T03:54:47.002Z,998.08
2017-11-19T03:55:47.031Z,997.97
2017-11-19T03:56:47.058Z,997.92
2017-11-19T03:57:47.085Z,998.00
2017-11-19T03:58:47.112Z,998.00
2017-11-19T03:59:47.140Z,998.05
2017-11-19T04:00:47.169Z,998.08
2017-11-19T04:01:47.194Z,998.12
2017-11-19T04:02:47.220Z,998.09
2017-11-19T04:03:47.250Z,998.14
2017-11-19T04:04:47.276Z,998.29
2017-11-19T04:05:47.301Z,998.42
2017-11-19T04:06:47.329Z,998.52
2017-11-19T04:07:47.357Z,998.47
2017-11-19T04:08:47.384Z,998.45
2017-11-19T04:09:47.411Z,998.47
2017-11-19T04:10:47.438Z,998.56
2017-11-19T04:11:47.466Z,998.57
2017-11-19T04:12:47.493Z,998.55
2017-11-19T04:13:47.520Z,998.51
2017-11-19T04:14:47.547Z,998.35
2017-11-19T04:15:47.574Z,998.34
2017-11-19T04:16:47.602Z,998.44
2017-11-19T04:17:47.628Z,998.36
2017-11-19T04:18:47.660Z,998.33
2017-11-19T04:19:47.688Z,998.32
2017-11-19T04:20:47.712Z,998.26
2017-11-19T04:21:47.736Z,998.39
2017-11-19T04:22:47.767Z,998.36
2017-11-19T04:23:47.793Z,998.35
2017-11-19T04:24:47.830Z,998.37
2017-11-19T04:25:47.847Z,998.32
2017-11-19T04:26:47.875Z,998.35
2017-11-19T04:27:47.902Z,998.38
2017-11-19T04:28:47.929Z,998.38
2017-11-19T04:29:47.956Z,998.41
2017-11-19T04:30:47.984Z,998.35
2017-11-19T04:31:48.011Z,998.38
2017-11-19T04:32:48.039Z,998.40
2017-11-19T04:33:48.065Z,998.37
2017-11-19T04:34:48.092Z,998.32
2017-11-19T04:35:48.120Z,998.31
2017-11-19T04:36:48.154Z,998.33
2017-11-19T04:37:48.200Z,998.41
2017-11-19T04:38:48.200Z,998.38
2017-11-19T04:39:48.228Z,998.45
2017-11-19T04:40:48.255Z,998.38
2017-11-19T04:41:48.282Z,998.41
2017-11-19T04:42:48.311Z,998.41
2017-11-19T04:43:48.336Z,998.41
2017-11-19T04:44:48.365Z,998.40
2017-11-19T04:45:48.391Z,998.43
2017-11-19T04:46:48.418Z,998.51
2017-11-19T04:47:48.445Z,998.43
2017-11-19T04:48:48.472Z,998.39
2017-11-19T04:49:48.498Z,998.25
2017-11-19T04:50:48.528Z,998.37
2017-11-19T04:51:48.555Z,998.40
2017-11-19T04:52:48.582Z,998.35
2017-11-19T04:53:48.609Z,998.43
2017-11-19T04:54:48.649Z,998.42
2017-11-19T04:55:48.664Z,998.40
2017-11-19T04:56:48.691Z,998.42
2017-11-19T04:57:48.717Z,998.36
2017-11-19T04:58:48.746Z,998.41
2017-11-19T04:59:48.773Z,998.45
2017-11-19T05:00:48.803Z,998.46
2017-11-19T05:01:48.831Z,998.40
2017-11-19T05:02:48.855Z,998.40
2017-11-19T05:03:48.882Z,998.50
2017-11-19T05:04:48.910Z,998.51
2017-11-19T05:05:48.935Z,998.50
2017-11-19T05:06:48.963Z,998.48
2017-11-19T05:07:48.990Z,998.44
2017-11-19T05:08:49.019Z,998.44
2017-11-19T05:09:49.044Z,998.40
2017-11-19T05:10:49.073Z,998.42
2017-11-19T05:11:49.101Z,998.45
2017-11-19T05:12:49.128Z,998.42
2017-11-19T05:13:49.155Z,998.42
2017-11-19T05:14:49.183Z,998.44
2017-11-19T05:15:49.210Z,998.44
2017-11-19T05:16:49.239Z,998.38
2017-11-19T05:17:49.264Z,998.44
2017-11-19T05:18:49.293Z,998.39
2017-11-19T05:19:49.320Z,998.48
2017-11-19T05:20:49.348Z,998.52
2017-11-19T05:21:49.374Z,998.61
2017-11-19T05:22:49.403Z,998.56
2017-11-19T05:23:49.430Z,998.50
2017-11-19T05:24:49.457Z,998.52
2017-11-19T05:25:49.489Z,998.57
2017-11-19T05:26:49.520Z,998.53
2017-11-19T05:27:49.538Z,998.57
2017-11-19T05:28:49.566Z,998.57
2017-11-19T05:29:49.595Z,998.55
2017-11-19T05:30:49.622Z,998.51
2017-11-19T05:31:49.652Z,998.49
2017-11-19T05:32:49.677Z,998.53
2017-11-19T05:33:49.703Z,998.54
2017-11-19T05:34:49.732Z,998.58
2017-11-19T05:35:49.759Z,998.52
2017-11-19T05:36:49.789Z,998.53
2017-11-19T05:37:49.814Z,998.60
2017-11-19T05:38:49.842Z,998.51
2017-11-19T05:39:49.869Z,998.60
2017-11-19T05:40:49.897Z,998.64
2017-11-19T05:41:49.923Z,998.72
2017-11-19T05:42:49.952Z,998.62
2017-11-19T05:43:49.978Z,998.63
2017-11-19T05:44:50.009Z,998.65
2017-11-19T05:45:50.034Z,998.65
2017-11-19T05:46:50.063Z,998.65
2017-11-19T05:47:50.089Z,998.63
2017-11-19T05:48:50.116Z,998.61
2017-11-19T05:49:50.145Z,998.65
2017-11-19T05:50:50.172Z,998.62
2017-11-19T05:51:50.201Z,998.69
2017-11-19T05:52:50.228Z,998.65
2017-11-19T05:53:50.255Z,998.63
2017-11-19T05:54:50.283Z,998.66
2017-11-19T05:55:50.310Z,998.66
2017-11-19T05:56:50.339Z,998.63
2017-11-19T05:57:50.364Z,998.65
2017-11-19T05:58:50.397Z,998.69
2017-11-19T05:59:50.420Z,998.70
2017-11-19T06:00:50.448Z,998.69
2017-11-19T06:01:50.475Z,998.73
2017-11-19T06:02:50.503Z,998.74
2017-11-19T06:03:50.531Z,998.80
2017-11-19T06:04:50.560Z,998.78
2017-11-19T06:05:50.586Z,998.73
2017-11-19T06:06:50.613Z,998.75
2017-11-19T06:07:50.640Z,998.82
2017-11-19T06:08:50.668Z,998.77
2017-11-19T06:09:50.696Z,998.71
2017-11-19T06:10:50.724Z,998.78
2017-11-19T06:11:50.752Z,998.79
2017-11-19T06:12:50.780Z,998.78
2017-11-19T06:13:50.807Z,998.73
2017-11-19T06:14:50.835Z,998.81
2017-11-19T06:15:50.864Z,998.78
2017-11-19T06:16:50.891Z,998.83
2017-11-19T06:17:50.924Z,998.81
2017-11-19T06:18:50.948Z,998.79
2017-11-19T06:19:50.976Z,998.83
2017-11-19T06:20:51.003Z,998.87
2017-11-19T06:21:51.030Z,998.91
2017-11-19T06:22:51.061Z,998.89
2017-11-19T06:23:51.086Z,998.90
2017-11-19T06:24:51.116Z,998.89
2017-11-19T06:25:51.141Z,998.84
2017-11-19T06:26:51.169Z,998.84
2017-11-19T06:27:51.198Z,998.87
2017-11-19T06:28:51.226Z,998.84
2017-11-19T06:29:51.252Z,998.83
2017-11-19T06:30:51.281Z,998.88
2017-11-19T06:31:51.308Z,998.92
2017-11-19T06:32:51.337Z,998.90
2017-11-19T06:33:51.367Z,998.88
2017-11-19T06:34:51.391Z,998.86
2017-11-19T06:35:51.418Z,998.88
2017-11-19T06:36:51.450Z,998.87
2017-11-19T06:37:51.475Z,998.89
2017-11-19T06:38:51.501Z,998.89
2017-11-19T06:39:51.531Z,998.90
2017-11-19T06:40:51.558Z,998.89
2017-11-19T06:41:51.588Z,998.97
2017-11-19T06:42:51.614Z,998.94
2017-11-19T06:43:51.642Z,998.94
2017-11-19T06:44:51.679Z,998.97
2017-11-19T06:45:51.697Z,998.92
2017-11-19T06:46:51.723Z,998.96
2017-11-19T06:47:51.753Z,998.93
2017-11-19T06:48:51.782Z,998.92
2017-11-19T06:49:51.809Z,998.99
2017-11-19T06:50:51.837Z,999.01
2017-11-19T06:51:51.864Z,999.01
2017-11-19T06:52:51.893Z,998.99
2017-11-19T06:53:51.920Z,999.03
2017-11-19T06:54:51.947Z,999.07
2017-11-19T06:55:51.977Z,999.05
2017-11-19T06:56:52.004Z,998.99
2017-11-19T06:57:52.031Z,999.03
2017-11-19T06:58:52.062Z,999.00
2017-11-19T06:59:52.086Z,999.03
2017-11-19T07:00:52.116Z,999.09
2017-11-19T07:01:52.147Z,999.09
2017-11-19T07:02:52.170Z,999.10
2017-11-19T07:03:52.199Z,999.15
2017-11-19T07:04:52.227Z,999.14
2017-11-19T07:05:52.253Z,999.18
2017-11-19T07:06:52.283Z,999.16
2017-11-19T07:07:52.330Z,999.16
2017-11-19T07:08:52.345Z,999.13
2017-11-19T07:09:52.367Z,999.24
2017-11-19T07:10:52.394Z,999.22
2017-11-19T07:11:52.422Z,999.19
2017-11-19T07:12:52.450Z,999.26
2017-11-19T07:13:52.477Z,999.22
2017-11-19T07:14:52.505Z,999.26
2017-11-19T07:15:52.534Z,999.30
2017-11-19T07:16:52.571Z,999.35
2017-11-19T07:17:52.588Z,999.35
2017-11-19T07:18:52.617Z,999.36
2017-11-19T07:19:52.644Z,999.38
2017-11-19T07:20:52.673Z,999.38
2017-11-19T07:21:52.700Z,999.42
2017-11-19T07:22:52.729Z,999.41
2017-11-19T07:23:52.757Z,999.49
2017-11-19T07:24:52.785Z,999.49
2017-11-19T07:25:52.811Z,999.51
2017-11-19T07:26:52.845Z,999.54
2017-11-19T07:27:52.869Z,999.53
2017-11-19T07:28:52.896Z,999.56
2017-11-19T07:29:52.924Z,999.59
2017-11-19T07:30:52.952Z,999.65
2017-11-19T07:31:52.982Z,999.67
2017-11-19T07:32:53.008Z,999.75
2017-11-19T07:33:53.035Z,999.73
2017-11-19T07:34:53.062Z,999.77
2017-11-19T07:35:53.092Z,999.71
2017-11-19T07:36:53.123Z,999.82
2017-11-19T07:37:53.147Z,999.83
2017-11-19T07:38:53.174Z,999.86
2017-11-19T07:39:53.202Z,999.86
2017-11-19T07:40:53.230Z,999.83
2017-11-19T07:41:53.258Z,999.87
2017-11-19T07:42:53.285Z,999.92
2017-11-19T07:43:53.313Z,999.92
2017-11-19T07:44:53.341Z,999.93
2017-11-19T07:45:53.369Z,999.95
2017-11-19T07:46:53.396Z,1000.01
2017-11-19T07:47:53.425Z,1000.05
2017-11-19T07:48:53.453Z,1000.07
2017-11-19T07:49:53.480Z,1000.01
2017-11-19T07:50:53.508Z,999.97
2017-11-19T07:51:53.537Z,999.93
2017-11-19T07:52:53.565Z,999.99
2017-11-19T07:53:53.594Z,999.95
2017-11-19T07:54:53.623Z,999.94
2017-11-19T07:55:53.649Z,999.88
2017-11-19T07:56:53.676Z,999.88
2017-11-19T07:57:53.703Z,999.95
2017-11-19T07:58:53.732Z,999.95
2017-11-19T07:59:53.761Z,999.92
2017-11-19T08:00:53.788Z,999.93
2017-11-19T08:01:53.816Z,999.90
2017-11-19T08:02:53.844Z,999.97
2017-11-19T08:03:53.873Z,999.97
2017-11-19T08:04:53.900Z,999.95
2017-11-19T08:05:53.927Z,1000.01
2017-11-19T08:06:53.956Z,1000.02
2017-11-19T08:07:53.985Z,1000.00
2017-11-19T08:08:54.011Z,1000.07
2017-11-19T08:09:54.040Z,1000.07
2017-11-19T08:10:54.068Z,1000.05
2017-11-19T08:11:54.097Z,1000.03
2017-11-19T08:12:54.123Z,1000.08
2017-11-19T08:13:54.153Z,1000.09
2017-11-19T08:14:54.181Z,1000.09
2017-11-19T08:15:54.209Z,1000.12
2017-11-19T08:16:54.237Z,1000.14
2017-11-19T08:17:54.264Z,1000.11
2017-11-19T08:18:54.293Z,1000.09
2017-11-19T08:19:54.322Z,1000.20
2017-11-19T08:20:54.351Z,1000.36
2017-11-19T08:21:54.379Z,1000.24
2017-11-19T08:22:54.407Z,1000.05
2017-11-19T08:23:54.444Z,1000.09
2017-11-19T08:24:54.467Z,1000.04
2017-11-19T08:25:54.495Z,1000.11
2017-11-19T08:26:54.525Z,999.98
2017-11-19T08:27:54.553Z,1000.06
2017-11-19T08:28:54.583Z,1000.04
2017-11-19T08:29:54.611Z,1000.04
2017-11-19T08:30:54.641Z,1000.09
2017-11-19T08:31:54.671Z,1000.10
2017-11-19T08:32:54.701Z,1000.06
2017-11-19T08:33:54.731Z,1000.07
2017-11-19T08:34:54.759Z,1000.13
2017-11-19T08:35:54.789Z,1000.18
2017-11-19T08:36:54.826Z,1000.07
2017-11-19T08:37:54.853Z,1000.12
2017-11-19T08:38:54.877Z,1000.11
2017-11-19T08:39:54.908Z,1000.16
2017-11-19T08:40:54.937Z,1000.22
2017-11-19T08:41:54.965Z,1000.18
2017-11-19T08:42:54.996Z,1000.15
2017-11-19T08:43:55.027Z,1000.15
2017-11-19T08:44:55.054Z,1000.16
2017-11-19T08:45:55.085Z,1000.15
2017-11-19T08:46:55.114Z,1000.18
2017-11-19T08:47:55.143Z,1000.17
2017-11-19T08:48:55.173Z,1000.19
2017-11-19T08:49:55.214Z,1000.20
2017-11-19T08:50:55.232Z,1000.33
2017-11-19T08:51:55.262Z,1000.62
2017-11-19T08:52:55.292Z,1000.31
2017-11-19T08:53:55.320Z,1000.27
2017-11-19T08:54:55.350Z,1000.24
2017-11-19T08:55:55.381Z,1000.96
2017-11-19T08:56:55.410Z,1000.95
2017-11-19T08:57:55.440Z,1001.04
2017-11-19T08:58:55.471Z,1000.98
2017-11-19T08:59:55.508Z,1001.03
2017-11-19T09:00:55.532Z,1001.02
2017-11-19T09:01:55.562Z,1001.02
2017-11-19T09:02:55.595Z,1001.04
2017-11-19T09:03:55.626Z,1001.01
2017-11-19T09:04:55.664Z,1001.05
2017-11-19T09:05:55.743Z,1001.06
2017-11-19T09:06:55.724Z,1001.05
2017-11-19T09:07:55.758Z,1001.13
2017-11-19T09:08:55.794Z,1001.10
2017-11-19T09:09:55.826Z,1001.13
2017-11-19T09:10:55.867Z,1001.13
2017-11-19T09:11:55.897Z,1001.09
2017-11-19T09:12:55.933Z,1001.14
2017-11-19T09:13:55.972Z,1001.14
2017-11-19T09:14:56.003Z,1001.15
2017-11-19T09:15:56.041Z,1001.15
2017-11-19T09:16:56.083Z,1001.22
2017-11-19T09:17:56.115Z,1001.21
2017-11-19T09:18:56.153Z,1001.34
2017-11-19T09:19:56.192Z,1001.37
2017-11-19T09:20:56.229Z,1001.44
2017-11-19T09:21:56.268Z,1001.42
2017-11-19T09:22:56.306Z,1001.00
2017-11-19T09:23:56.349Z,1001.48
2017-11-19T09:24:56.385Z,1001.54
2017-11-19T09:25:56.426Z,1001.61
2017-11-19T09:26:56.463Z,1001.64
2017-11-19T09:27:56.503Z,1001.70
2017-11-19T09:28:56.543Z,1001.71
2017-11-19T09:29:56.582Z,1001.77
2017-11-19T09:30:56.622Z,1001.80
2017-11-19T09:31:56.664Z,1001.79
2017-11-19T09:32:56.705Z,1001.83
2017-11-19T09:33:56.745Z,1000.73
2017-11-19T09:34:56.785Z,1001.11
2017-11-19T09:35:56.826Z,1000.66
2017-11-19T09:36:56.869Z,1000.70
2017-11-19T09:37:56.924Z,1000.72
2017-11-19T09:38:56.953Z,1000.73
2017-11-19T09:39:56.991Z,1000.74
2017-11-19T09:40:57.035Z,1000.77
2017-11-19T09:41:57.072Z,1000.78
2017-11-19T09:42:57.112Z,1000.85
2017-11-19T09:43:57.152Z,1000.79
2017-11-19T09:44:57.190Z,1000.80
2017-11-19T09:45:57.229Z,1000.82
2017-11-19T09:46:57.268Z,1000.80
2017-11-19T09:47:57.305Z,1000.88
2017-11-19T09:48:57.344Z,1000.86
2017-11-19T09:49:57.388Z,1000.90
2017-11-19T09:50:57.418Z,1000.88
2017-11-19T09:51:57.456Z,1000.86
2017-11-19T09:52:57.498Z,1000.94
2017-11-19T09:53:57.528Z,1000.97
2017-11-19T09:54:57.565Z,1000.99
2017-11-19T09:55:57.638Z,1001.04
2017-11-19T09:56:57.638Z,1001.05
2017-11-19T09:57:57.673Z,1001.09
2017-11-19T09:58:57.709Z,1001.11
2017-11-19T09:59:57.744Z,1001.08
2017-11-19T10:00:57.780Z,1001.10
2017-11-19T10:01:57.814Z,1001.16
2017-11-19T10:02:57.849Z,1001.17
2017-11-19T10:03:57.885Z,1001.20
2017-11-19T10:04:57.920Z,1001.21
2017-11-19T10:05:57.971Z,1001.20
2017-11-19T10:06:57.989Z,1001.21
2017-11-19T10:07:58.031Z,1001.20
2017-11-19T10:08:58.058Z,1001.26
2017-11-19T10:09:58.092Z,1001.22
2017-11-19T10:10:58.129Z,1001.28
2017-11-19T10:11:58.161Z,1001.35
2017-11-19T10:12:58.197Z,1001.75
2017-11-19T10:13:58.231Z,1001.22
2017-11-19T10:14:58.265Z,1001.21
2017-11-19T10:15:58.304Z,1001.17
2017-11-19T10:16:58.335Z,1001.26
2017-11-19T10:17:58.369Z,1001.07
2017-11-19T10:18:58.404Z,1001.06
2017-11-19T10:19:58.440Z,1001.04
2017-11-19T10:20:58.475Z,1001.01
2017-11-19T10:21:58.508Z,1001.08
2017-11-19T10:22:58.544Z,1001.07
2017-11-19T10:23:58.578Z,1001.02
2017-11-19T10:24:58.612Z,1001.09
2017-11-19T10:25:58.645Z,1001.03
2017-11-19T10:26:58.680Z,1001.05
2017-11-19T10:27:58.716Z,1001.01
2017-11-19T10:28:58.750Z,1001.03
2017-11-19T10:29:58.784Z,1001.00
2017-11-19T10:30:58.818Z,1000.97
2017-11-19T10:31:58.851Z,1000.99
2017-11-19T10:32:58.883Z,1001.05
2017-11-19T10:33:58.922Z,1001.10
2017-11-19T10:34:58.954Z,1000.97
2017-11-19T10:35:58.986Z,1000.94
2017-11-19T10:36:59.019Z,1000.95
2017-11-19T10:37:59.051Z,1000.93
2017-11-19T10:38:59.089Z,1000.95
2017-11-19T10:39:59.119Z,1000.93
2017-11-19T10:40:59.152Z,1000.96
2017-11-19T10:41:59.185Z,1000.96
2017-11-19T10:42:59.218Z,1000.98
2017-11-19T10:43:59.251Z,1000.96
2017-11-19T10:44:59.285Z,1000.97
2017-11-19T10:45:59.316Z,1000.98
2017-11-19T10:46:59.355Z,1001.00
2017-11-19T10:47:59.381Z,1001.02
2017-11-19T10:48:59.414Z,1000.99
2017-11-19T10:49:59.444Z,1000.95
2017-11-19T10:50:59.479Z,1000.93
2017-11-19T10:51:59.511Z,1000.95
2017-11-19T10:52:59.544Z,1000.92
2017-11-19T10:53:59.573Z,1000.94
2017-11-19T10:54:59.607Z,1000.91
2017-11-19T10:55:59.639Z,1000.95
2017-11-19T10:56:59.673Z,1000.98
2017-11-19T10:57:59.703Z,1001.05
2017-11-19T10:58:59.735Z,1001.05
2017-11-19T10:59:59.767Z,1001.08
2017-11-19T11:00:59.800Z,1001.09
2017-11-19T11:01:59.830Z,1001.09
2017-11-19T11:02:59.863Z,1001.07
2017-11-19T11:03:59.893Z,1001.06
2017-11-19T11:04:59.926Z,1001.10
2017-11-19T11:05:59.962Z,1001.07
2017-11-19T11:06:59.987Z,1001.07
2017-11-19T11:08:00.020Z,1001.14
2017-11-19T11:09:00.052Z,1001.11
2017-11-19T11:10:00.081Z,1001.17
2017-11-19T11:11:00.113Z,1001.16
2017-11-19T11:12:00.142Z,1001.17
2017-11-19T11:13:00.174Z,1001.18
2017-11-19T11:14:00.205Z,1001.14
2017-11-19T11:15:00.237Z,1001.14
2017-11-19T11:16:00.270Z,1001.11
2017-11-19T11:17:00.296Z,1001.15
2017-11-19T11:18:00.328Z,1001.15
2017-11-19T11:19:00.509Z,1001.16
2017-11-19T11:20:00.391Z,1001.19
2017-11-19T11:21:00.437Z,1001.18
2017-11-19T11:22:00.449Z,1001.27
2017-11-19T11:23:00.482Z,1001.26
2017-11-19T11:24:00.515Z,1001.33
2017-11-19T11:25:00.543Z,1001.52
2017-11-19T11:26:00.572Z,1002.65
2017-11-19T11:27:00.605Z,1002.88
2017-11-19T11:28:00.635Z,1002.24
2017-11-19T11:29:00.667Z,1002.18
2017-11-19T11:30:00.699Z,1001.45
2017-11-19T11:31:00.732Z,1001.35
2017-11-19T11:32:00.762Z,1001.48
2017-11-19T11:33:00.795Z,1003.07
2017-11-19T11:34:00.829Z,1003.00
2017-11-19T11:35:00.863Z,1001.60
2017-11-19T11:36:00.897Z,1001.77
2017-11-19T11:37:00.932Z,1002.31
2017-11-19T11:38:00.967Z,1002.18
2017-11-19T11:39:01.009Z,1001.08
2017-11-19T11:40:01.039Z,1001.07
2017-11-19T11:41:01.075Z,1001.10
2017-11-19T11:42:01.110Z,1001.09
2017-11-19T11:43:01.147Z,1001.09
2017-11-19T11:44:01.184Z,1001.09
2017-11-19T11:45:01.220Z,1001.10
2017-11-19T11:46:01.255Z,1001.04
2017-11-19T11:47:01.292Z,1001.08
2017-11-19T11:48:01.327Z,1001.11
2017-11-19T11:49:01.362Z,1001.18
2017-11-19T11:50:01.399Z,1001.13
2017-11-19T11:51:01.433Z,1001.15
2017-11-19T11:52:01.469Z,1001.15
2017-11-19T11:53:01.504Z,1001.15
2017-11-19T11:54:01.537Z,1001.16
2017-11-19T11:55:01.572Z,1001.16
2017-11-19T11:56:01.606Z,1001.14
2017-11-19T11:57:01.641Z,1001.11
2017-11-19T11:58:01.692Z,1001.18
2017-11-19T11:59:01.706Z,1001.19
2017-11-19T12:00:01.740Z,1001.22
2017-11-19T12:01:01.772Z,1001.24
2017-11-19T12:02:01.806Z,1002.17
2017-11-19T12:03:01.838Z,1001.24
2017-11-19T12:04:01.872Z,1001.18
2017-11-19T12:05:01.905Z,1001.25
2017-11-19T12:06:01.939Z,1001.32
2017-11-19T12:07:01.975Z,1001.34
2017-11-19T12:08:02.001Z,1001.43
2017-11-19T12:09:02.035Z,1002.89
2017-11-19T12:10:02.066Z,1001.55
2017-11-19T12:11:02.103Z,1001.65
2017-11-19T12:12:02.132Z,1001.49
2017-11-19T12:13:02.165Z,1002.40
2017-11-19T12:14:02.209Z,1002.98
2017-11-19T12:15:02.229Z,1002.86
2017-11-19T12:16:02.265Z,1002.16
2017-11-19T12:17:02.298Z,1002.06
2017-11-19T12:18:02.331Z,1002.96